sensor_id;sensor_type;location;lat;lon;timestamp;temperature;humidity
20068;DHT22;10194;50.824;7.134;2023-05-02T00:02:14;9.50;99.90
20068;DHT22;10194;50.824;7.134;2023-05-02T00:04:40;9.50;99.90
20068;DHT22;10194;50.824;7.134;2023-05-02T00:07:05;9.60;99.90
20068;DHT22;10194;50.824;7.134;2023-05-02T00:09:31;9.60;99.90
20068;DHT22;10194;50.824;7.134;2023-05-02T00:11:57;9.70;99.90
20068;DHT22;10194;50.824;7.134;2023-05-02T00:14:23;9.70;99.90
20068;DHT22;10194;50.824;7.134;2023-05-02T00:16:49;9.70;99.90
20068;DHT22;10194;50.824;7.134;2023-05-02T00:19:15;9.70;99.90
20068;DHT22;10194;50.824;7.134;2023-05-02T00:21:41;9.70;99.90
20068;DHT22;10194;50.824;7.134;2023-05-02T00:24:06;9.80;99.90
20068;DHT22;10194;50.824;7.134;2023-05-02T00:26:32;9.80;99.90
20068;DHT22;10194;50.824;7.134;2023-05-02T00:28:58;9.80;99.90
20068;DHT22;10194;50.824;7.134;2023-05-02T00:31:25;9.90;99.90
20068;DHT22;10194;50.824;7.134;2023-05-02T00:33:50;9.80;99.90
20068;DHT22;10194;50.824;7.134;2023-05-02T00:36:17;9.80;99.90
20068;DHT22;10194;50.824;7.134;2023-05-02T00:38:44;9.70;99.90
20068;DHT22;10194;50.824;7.134;2023-05-02T00:41:10;9.70;99.90
20068;DHT22;10194;50.824;7.134;2023-05-02T00:43:36;9.60;99.90
20068;DHT22;10194;50.824;7.134;2023-05-02T00:46:04;9.50;99.90
20068;DHT22;10194;50.824;7.134;2023-05-02T00:48:31;9.50;99.90
20068;DHT22;10194;50.824;7.134;2023-05-02T00:50:57;9.50;99.90
20068;DHT22;10194;50.824;7.134;2023-05-02T00:53:23;9.50;99.90
20068;DHT22;10194;50.824;7.134;2023-05-02T00:55:49;9.50;99.90
20068;DHT22;10194;50.824;7.134;2023-05-02T00:58:16;9.50;99.90
20068;DHT22;10194;50.824;7.134;2023-05-02T01:12:59;9.40;99.90
20068;DHT22;10194;50.824;7.134;2023-05-02T01:15:31;9.50;99.90
20068;DHT22;10194;50.824;7.134;2023-05-02T01:17:59;9.60;99.90
20068;DHT22;10194;50.824;7.134;2023-05-02T01:20:27;9.70;99.90
20068;DHT22;10194;50.824;7.134;2023-05-02T01:22:57;9.80;99.90
20068;DHT22;10194;50.824;7.134;2023-05-02T01:25:38;9.90;99.90
20068;DHT22;10194;50.824;7.134;2023-05-02T01:30:54;10.10;99.90
20068;DHT22;10194;50.824;7.134;2023-05-02T01:33:22;10.20;99.90
20068;DHT22;10194;50.824;7.134;2023-05-02T01:35:50;10.20;99.90
20068;DHT22;10194;50.824;7.134;2023-05-02T01:38:18;10.30;99.90
20068;DHT22;10194;50.824;7.134;2023-05-02T01:40:46;10.30;99.90
20068;DHT22;10194;50.824;7.134;2023-05-02T01:43:13;10.40;99.90
20068;DHT22;10194;50.824;7.134;2023-05-02T01:45:43;10.40;99.90
20068;DHT22;10194;50.824;7.134;2023-05-02T01:48:10;10.40;99.90
20068;DHT22;10194;50.824;7.134;2023-05-02T01:50:36;10.30;99.90
20068;DHT22;10194;50.824;7.134;2023-05-02T01:53:04;10.30;99.90
20068;DHT22;10194;50.824;7.134;2023-05-02T01:55:35;10.30;99.90
20068;DHT22;10194;50.824;7.134;2023-05-02T01:58:01;10.30;99.90
20068;DHT22;10194;50.824;7.134;2023-05-02T02:00:28;10.40;99.90
20068;DHT22;10194;50.824;7.134;2023-05-02T02:02:56;10.40;99.90
20068;DHT22;10194;50.824;7.134;2023-05-02T02:05:23;10.50;99.90
20068;DHT22;10194;50.824;7.134;2023-05-02T02:07:50;10.50;99.90
20068;DHT22;10194;50.824;7.134;2023-05-02T02:10:16;10.40;99.90
20068;DHT22;10194;50.824;7.134;2023-05-02T02:12:47;10.30;99.90
20068;DHT22;10194;50.824;7.134;2023-05-02T02:15:35;10.30;99.90
20068;DHT22;10194;50.824;7.134;2023-05-02T02:18:12;10.30;99.90
20068;DHT22;10194;50.824;7.134;2023-05-02T02:20:42;10.20;99.90
20068;DHT22;10194;50.824;7.134;2023-05-02T02:23:10;10.20;99.90
20068;DHT22;10194;50.824;7.134;2023-05-02T02:25:36;10.20;99.90
20068;DHT22;10194;50.824;7.134;2023-05-02T02:28:02;10.20;99.90
20068;DHT22;10194;50.824;7.134;2023-05-02T02:30:28;10.20;99.90
20068;DHT22;10194;50.824;7.134;2023-05-02T02:32:54;10.30;99.90
20068;DHT22;10194;50.824;7.134;2023-05-02T02:35:20;10.30;99.90
20068;DHT22;10194;50.824;7.134;2023-05-02T02:37:54;10.30;99.90
20068;DHT22;10194;50.824;7.134;2023-05-02T02:40:43;10.40;99.90
20068;DHT22;10194;50.824;7.134;2023-05-02T02:43:16;10.40;99.90
20068;DHT22;10194;50.824;7.134;2023-05-02T02:52:01;10.40;99.90
20068;DHT22;10194;50.824;7.134;2023-05-02T02:54:55;10.40;99.90
20068;DHT22;10194;50.824;7.134;2023-05-02T03:00:19;10.50;99.90
20068;DHT22;10194;50.824;7.134;2023-05-02T03:02:46;10.50;99.90
20068;DHT22;10194;50.824;7.134;2023-05-02T03:05:12;10.50;99.90
20068;DHT22;10194;50.824;7.134;2023-05-02T03:07:39;10.50;99.90
20068;DHT22;10194;50.824;7.134;2023-05-02T03:10:06;10.40;99.90
20068;DHT22;10194;50.824;7.134;2023-05-02T03:12:32;10.50;99.90
20068;DHT22;10194;50.824;7.134;2023-05-02T03:17:58;10.50;99.90
20068;DHT22;10194;50.824;7.134;2023-05-02T03:20:23;10.50;99.90
20068;DHT22;10194;50.824;7.134;2023-05-02T03:22:49;10.60;99.90
20068;DHT22;10194;50.824;7.134;2023-05-02T03:25:15;10.50;99.90
20068;DHT22;10194;50.824;7.134;2023-05-02T03:27:41;10.50;99.90
20068;DHT22;10194;50.824;7.134;2023-05-02T03:30:07;10.50;99.90
20068;DHT22;10194;50.824;7.134;2023-05-02T03:32:33;10.50;99.90
20068;DHT22;10194;50.824;7.134;2023-05-02T03:34:59;10.40;99.90
20068;DHT22;10194;50.824;7.134;2023-05-02T03:37:24;10.40;99.90
20068;DHT22;10194;50.824;7.134;2023-05-02T03:39:50;10.50;99.90
20068;DHT22;10194;50.824;7.134;2023-05-02T03:42:16;10.50;99.90
20068;DHT22;10194;50.824;7.134;2023-05-02T03:44:41;10.50;99.90
20068;DHT22;10194;50.824;7.134;2023-05-02T03:47:07;10.50;99.90
20068;DHT22;10194;50.824;7.134;2023-05-02T03:49:33;10.50;99.90
20068;DHT22;10194;50.824;7.134;2023-05-02T03:52:00;10.50;99.90
20068;DHT22;10194;50.824;7.134;2023-05-02T03:54:26;10.50;99.90
20068;DHT22;10194;50.824;7.134;2023-05-02T03:56:54;10.50;99.90
20068;DHT22;10194;50.824;7.134;2023-05-02T03:59:20;10.50;99.90
20068;DHT22;10194;50.824;7.134;2023-05-02T04:01:49;10.50;99.90
20068;DHT22;10194;50.824;7.134;2023-05-02T04:04:15;10.60;99.90
20068;DHT22;10194;50.824;7.134;2023-05-02T04:06:41;10.60;99.90
20068;DHT22;10194;50.824;7.134;2023-05-02T04:09:07;10.60;99.90
20068;DHT22;10194;50.824;7.134;2023-05-02T04:11:32;10.60;99.90
20068;DHT22;10194;50.824;7.134;2023-05-02T04:13:58;10.60;99.90
20068;DHT22;10194;50.824;7.134;2023-05-02T04:16:24;10.50;99.90
20068;DHT22;10194;50.824;7.134;2023-05-02T04:18:50;10.50;99.90
20068;DHT22;10194;50.824;7.134;2023-05-02T04:21:16;10.50;99.90
20068;DHT22;10194;50.824;7.134;2023-05-02T04:23:41;10.50;99.90
20068;DHT22;10194;50.824;7.134;2023-05-02T04:26:07;10.50;99.90
20068;DHT22;10194;50.824;7.134;2023-05-02T04:28:34;10.50;99.90
20068;DHT22;10194;50.824;7.134;2023-05-02T04:31:00;10.60;99.90
20068;DHT22;10194;50.824;7.134;2023-05-02T04:33:28;10.60;99.90
20068;DHT22;10194;50.824;7.134;2023-05-02T04:35:53;10.60;99.90
20068;DHT22;10194;50.824;7.134;2023-05-02T04:38:19;10.60;99.90
20068;DHT22;10194;50.824;7.134;2023-05-02T04:40:45;10.60;99.90
20068;DHT22;10194;50.824;7.134;2023-05-02T04:43:11;10.60;99.90
20068;DHT22;10194;50.824;7.134;2023-05-02T04:45:37;10.70;99.90
20068;DHT22;10194;50.824;7.134;2023-05-02T04:48:03;10.70;99.90
20068;DHT22;10194;50.824;7.134;2023-05-02T04:50:29;10.70;99.90
20068;DHT22;10194;50.824;7.134;2023-05-02T04:52:56;10.60;99.90
20068;DHT22;10194;50.824;7.134;2023-05-02T04:55:22;10.70;99.90
20068;DHT22;10194;50.824;7.134;2023-05-02T04:57:49;10.70;99.90
20068;DHT22;10194;50.824;7.134;2023-05-02T05:00:16;10.60;99.90
20068;DHT22;10194;50.824;7.134;2023-05-02T05:02:41;10.70;99.90
20068;DHT22;10194;50.824;7.134;2023-05-02T05:05:07;10.70;99.90
20068;DHT22;10194;50.824;7.134;2023-05-02T05:07:34;10.80;99.90
20068;DHT22;10194;50.824;7.134;2023-05-02T05:09:59;10.80;99.90
20068;DHT22;10194;50.824;7.134;2023-05-02T05:12:28;10.80;99.90
20068;DHT22;10194;50.824;7.134;2023-05-02T05:14:53;10.80;99.90
20068;DHT22;10194;50.824;7.134;2023-05-02T05:17:19;10.80;99.90
20068;DHT22;10194;50.824;7.134;2023-05-02T05:19:45;10.80;99.90
20068;DHT22;10194;50.824;7.134;2023-05-02T05:22:11;10.90;99.90
20068;DHT22;10194;50.824;7.134;2023-05-02T05:24:37;10.90;99.90
20068;DHT22;10194;50.824;7.134;2023-05-02T05:27:03;10.90;99.90
20068;DHT22;10194;50.824;7.134;2023-05-02T05:29:30;11.00;99.90
20068;DHT22;10194;50.824;7.134;2023-05-02T05:31:57;11.00;99.90
20068;DHT22;10194;50.824;7.134;2023-05-02T05:34:23;11.00;99.90
20068;DHT22;10194;50.824;7.134;2023-05-02T05:36:49;11.00;99.90
20068;DHT22;10194;50.824;7.134;2023-05-02T05:39:15;11.00;99.90
20068;DHT22;10194;50.824;7.134;2023-05-02T05:41:41;11.00;99.90
20068;DHT22;10194;50.824;7.134;2023-05-02T05:44:07;11.10;99.90
20068;DHT22;10194;50.824;7.134;2023-05-02T05:46:33;11.10;99.90
20068;DHT22;10194;50.824;7.134;2023-05-02T05:48:59;11.10;99.90
20068;DHT22;10194;50.824;7.134;2023-05-02T05:51:25;11.10;99.90
20068;DHT22;10194;50.824;7.134;2023-05-02T05:53:52;11.00;99.90
20068;DHT22;10194;50.824;7.134;2023-05-02T05:56:18;11.00;99.90
20068;DHT22;10194;50.824;7.134;2023-05-02T05:58:44;10.90;99.90
20068;DHT22;10194;50.824;7.134;2023-05-02T06:01:09;10.90;99.90
20068;DHT22;10194;50.824;7.134;2023-05-02T06:03:36;10.90;99.90
20068;DHT22;10194;50.824;7.134;2023-05-02T06:06:01;10.90;99.90
20068;DHT22;10194;50.824;7.134;2023-05-02T06:08:27;10.90;99.90
20068;DHT22;10194;50.824;7.134;2023-05-02T06:10:53;10.90;99.90
20068;DHT22;10194;50.824;7.134;2023-05-02T06:13:19;10.90;99.90
20068;DHT22;10194;50.824;7.134;2023-05-02T06:15:44;10.90;99.90
20068;DHT22;10194;50.824;7.134;2023-05-02T06:18:10;10.90;99.90
20068;DHT22;10194;50.824;7.134;2023-05-02T06:20:36;10.90;99.90
20068;DHT22;10194;50.824;7.134;2023-05-02T06:23:02;11.00;99.90
20068;DHT22;10194;50.824;7.134;2023-05-02T06:25:27;11.00;99.90
20068;DHT22;10194;50.824;7.134;2023-05-02T06:27:53;11.00;99.90
20068;DHT22;10194;50.824;7.134;2023-05-02T06:30:19;11.00;99.90
20068;DHT22;10194;50.824;7.134;2023-05-02T06:32:45;11.00;99.90
20068;DHT22;10194;50.824;7.134;2023-05-02T06:35:11;11.10;99.90
20068;DHT22;10194;50.824;7.134;2023-05-02T06:37:37;11.10;99.90
20068;DHT22;10194;50.824;7.134;2023-05-02T06:40:03;11.20;99.90
20068;DHT22;10194;50.824;7.134;2023-05-02T06:42:29;11.20;99.90
20068;DHT22;10194;50.824;7.134;2023-05-02T06:44:55;11.30;99.90
20068;DHT22;10194;50.824;7.134;2023-05-02T06:47:21;11.30;99.90
20068;DHT22;10194;50.824;7.134;2023-05-02T06:49:50;11.50;99.90
20068;DHT22;10194;50.824;7.134;2023-05-02T06:52:16;11.50;99.90
20068;DHT22;10194;50.824;7.134;2023-05-02T06:54:42;11.70;99.90
20068;DHT22;10194;50.824;7.134;2023-05-02T06:57:07;11.70;99.90
20068;DHT22;10194;50.824;7.134;2023-05-02T06:59:34;11.70;99.90
20068;DHT22;10194;50.824;7.134;2023-05-02T07:01:59;11.80;99.90
20068;DHT22;10194;50.824;7.134;2023-05-02T07:04:25;11.70;99.90
20068;DHT22;10194;50.824;7.134;2023-05-02T07:06:51;11.70;99.90
20068;DHT22;10194;50.824;7.134;2023-05-02T07:09:17;11.60;99.90
20068;DHT22;10194;50.824;7.134;2023-05-02T07:11:43;11.50;99.90
20068;DHT22;10194;50.824;7.134;2023-05-02T07:14:09;11.40;99.90
20068;DHT22;10194;50.824;7.134;2023-05-02T07:16:34;11.40;99.90
20068;DHT22;10194;50.824;7.134;2023-05-02T07:19:00;11.40;99.90
20068;DHT22;10194;50.824;7.134;2023-05-02T07:21:29;11.20;99.90
20068;DHT22;10194;50.824;7.134;2023-05-02T07:23:54;11.20;99.90
20068;DHT22;10194;50.824;7.134;2023-05-02T07:26:22;11.10;99.90
20068;DHT22;10194;50.824;7.134;2023-05-02T07:28:47;11.10;99.90
20068;DHT22;10194;50.824;7.134;2023-05-02T07:31:13;11.10;99.90
20068;DHT22;10194;50.824;7.134;2023-05-02T07:33:39;11.10;99.90
20068;DHT22;10194;50.824;7.134;2023-05-02T07:36:05;11.10;99.90
20068;DHT22;10194;50.824;7.134;2023-05-02T07:38:31;11.20;99.90
20068;DHT22;10194;50.824;7.134;2023-05-02T07:40:57;11.30;99.90
20068;DHT22;10194;50.824;7.134;2023-05-02T07:43:24;11.30;99.90
20068;DHT22;10194;50.824;7.134;2023-05-02T07:45:50;11.20;99.90
20068;DHT22;10194;50.824;7.134;2023-05-02T07:48:16;11.20;99.90
20068;DHT22;10194;50.824;7.134;2023-05-02T07:50:42;11.40;99.90
20068;DHT22;10194;50.824;7.134;2023-05-02T07:53:08;11.50;99.90
20068;DHT22;10194;50.824;7.134;2023-05-02T07:55:34;11.50;99.90
20068;DHT22;10194;50.824;7.134;2023-05-02T07:57:59;11.60;99.90
20068;DHT22;10194;50.824;7.134;2023-05-02T08:00:25;11.50;99.90
20068;DHT22;10194;50.824;7.134;2023-05-02T08:02:51;11.60;99.90
20068;DHT22;10194;50.824;7.134;2023-05-02T08:05:17;11.70;99.90
20068;DHT22;10194;50.824;7.134;2023-05-02T08:07:42;11.80;99.90
20068;DHT22;10194;50.824;7.134;2023-05-02T08:10:08;11.90;99.90
20068;DHT22;10194;50.824;7.134;2023-05-02T08:12:39;12.00;99.90
20068;DHT22;10194;50.824;7.134;2023-05-02T08:15:10;11.80;99.90
20068;DHT22;10194;50.824;7.134;2023-05-02T08:17:37;11.70;99.90
20068;DHT22;10194;50.824;7.134;2023-05-02T08:20:03;11.70;99.90
20068;DHT22;10194;50.824;7.134;2023-05-02T08:22:30;11.70;99.90
20068;DHT22;10194;50.824;7.134;2023-05-02T08:24:56;11.60;99.90
20068;DHT22;10194;50.824;7.134;2023-05-02T08:27:21;11.60;99.90
20068;DHT22;10194;50.824;7.134;2023-05-02T08:29:47;11.50;99.90
20068;DHT22;10194;50.824;7.134;2023-05-02T08:32:13;11.60;99.90
20068;DHT22;10194;50.824;7.134;2023-05-02T08:34:39;11.60;99.90
20068;DHT22;10194;50.824;7.134;2023-05-02T08:37:10;11.60;99.90
20068;DHT22;10194;50.824;7.134;2023-05-02T08:39:37;11.50;99.90
20068;DHT22;10194;50.824;7.134;2023-05-02T08:42:07;11.50;99.90
20068;DHT22;10194;50.824;7.134;2023-05-02T08:44:32;11.50;99.90
20068;DHT22;10194;50.824;7.134;2023-05-02T08:46:59;11.50;99.90
20068;DHT22;10194;50.824;7.134;2023-05-02T08:49:26;11.50;99.90
20068;DHT22;10194;50.824;7.134;2023-05-02T08:51:54;11.50;99.90
20068;DHT22;10194;50.824;7.134;2023-05-02T08:54:20;11.50;99.90
20068;DHT22;10194;50.824;7.134;2023-05-02T08:56:50;11.70;99.90
20068;DHT22;10194;50.824;7.134;2023-05-02T08:59:18;11.80;99.90
20068;DHT22;10194;50.824;7.134;2023-05-02T09:01:44;12.10;99.90
20068;DHT22;10194;50.824;7.134;2023-05-02T09:04:13;12.30;99.90
20068;DHT22;10194;50.824;7.134;2023-05-02T09:06:39;12.50;99.90
20068;DHT22;10194;50.824;7.134;2023-05-02T09:09:05;12.80;99.90
20068;DHT22;10194;50.824;7.134;2023-05-02T09:11:32;12.70;99.90
20068;DHT22;10194;50.824;7.134;2023-05-02T09:13:58;12.50;99.90
20068;DHT22;10194;50.824;7.134;2023-05-02T09:16:28;12.50;99.90
20068;DHT22;10194;50.824;7.134;2023-05-02T09:18:56;12.50;99.90
20068;DHT22;10194;50.824;7.134;2023-05-02T09:21:24;12.40;99.90
20068;DHT22;10194;50.824;7.134;2023-05-02T09:23:53;12.30;99.90
20068;DHT22;10194;50.824;7.134;2023-05-02T09:28:50;12.30;99.90
20068;DHT22;10194;50.824;7.134;2023-05-02T09:31:24;12.20;99.90
20068;DHT22;10194;50.824;7.134;2023-05-02T09:33:52;12.20;99.90
20068;DHT22;10194;50.824;7.134;2023-05-02T09:36:19;12.20;99.90
20068;DHT22;10194;50.824;7.134;2023-05-02T09:38:47;12.20;99.90
20068;DHT22;10194;50.824;7.134;2023-05-02T09:41:14;12.10;99.90
20068;DHT22;10194;50.824;7.134;2023-05-02T09:43:42;12.10;99.90
20068;DHT22;10194;50.824;7.134;2023-05-02T09:46:11;12.10;99.90
20068;DHT22;10194;50.824;7.134;2023-05-02T09:48:55;12.10;99.90
20068;DHT22;10194;50.824;7.134;2023-05-02T09:51:23;12.20;99.90
20068;DHT22;10194;50.824;7.134;2023-05-02T09:53:50;12.30;99.90
20068;DHT22;10194;50.824;7.134;2023-05-02T09:56:16;12.20;99.90
20068;DHT22;10194;50.824;7.134;2023-05-02T09:58:43;12.10;99.90
20068;DHT22;10194;50.824;7.134;2023-05-02T10:01:16;11.80;99.90
20068;DHT22;10194;50.824;7.134;2023-05-02T10:03:46;11.80;99.90
20068;DHT22;10194;50.824;7.134;2023-05-02T10:06:14;11.90;99.90
20068;DHT22;10194;50.824;7.134;2023-05-02T10:08:42;12.10;99.90
20068;DHT22;10194;50.824;7.134;2023-05-02T10:11:12;12.00;99.90
20068;DHT22;10194;50.824;7.134;2023-05-02T10:13:40;12.10;99.90
20068;DHT22;10194;50.824;7.134;2023-05-02T10:16:07;12.30;99.90
20068;DHT22;10194;50.824;7.134;2023-05-02T10:18:41;12.30;99.90
20068;DHT22;10194;50.824;7.134;2023-05-02T10:21:27;12.20;99.90
20068;DHT22;10194;50.824;7.134;2023-05-02T10:23:53;12.30;99.90
20068;DHT22;10194;50.824;7.134;2023-05-02T10:26:19;12.50;99.90
20068;DHT22;10194;50.824;7.134;2023-05-02T10:28:48;12.40;99.90
20068;DHT22;10194;50.824;7.134;2023-05-02T10:31:16;12.50;99.90
20068;DHT22;10194;50.824;7.134;2023-05-02T10:33:42;12.50;99.90
20068;DHT22;10194;50.824;7.134;2023-05-02T10:36:10;12.60;99.90
20068;DHT22;10194;50.824;7.134;2023-05-02T10:38:39;12.90;99.90
20068;DHT22;10194;50.824;7.134;2023-05-02T10:41:23;12.80;99.90
20068;DHT22;10194;50.824;7.134;2023-05-02T10:43:52;12.80;99.90
20068;DHT22;10194;50.824;7.134;2023-05-02T10:46:38;12.70;99.90
20068;DHT22;10194;50.824;7.134;2023-05-02T10:49:12;13.00;99.90
20068;DHT22;10194;50.824;7.134;2023-05-02T10:51:40;13.20;99.90
20068;DHT22;10194;50.824;7.134;2023-05-02T10:59:30;13.10;99.90
20068;DHT22;10194;50.824;7.134;2023-05-02T11:01:57;13.00;99.90
20068;DHT22;10194;50.824;7.134;2023-05-02T11:04:23;13.30;99.90
20068;DHT22;10194;50.824;7.134;2023-05-02T11:11:50;13.50;99.90
20068;DHT22;10194;50.824;7.134;2023-05-02T11:19:27;13.70;99.90
20068;DHT22;10194;50.824;7.134;2023-05-02T11:24:43;13.80;99.90
20068;DHT22;10194;50.824;7.134;2023-05-02T11:30:00;14.30;99.90
20068;DHT22;10194;50.824;7.134;2023-05-02T11:35:23;14.50;99.90
20068;DHT22;10194;50.824;7.134;2023-05-02T11:37:54;14.50;99.90
20068;DHT22;10194;50.824;7.134;2023-05-02T11:40:20;14.40;99.90
20068;DHT22;10194;50.824;7.134;2023-05-02T11:42:46;14.20;99.90
20068;DHT22;10194;50.824;7.134;2023-05-02T11:45:12;14.00;99.90
20068;DHT22;10194;50.824;7.134;2023-05-02T11:47:39;13.80;99.90
20068;DHT22;10194;50.824;7.134;2023-05-02T11:50:06;13.80;99.90
20068;DHT22;10194;50.824;7.134;2023-05-02T11:52:38;13.80;99.90
20068;DHT22;10194;50.824;7.134;2023-05-02T11:55:10;13.80;99.90
20068;DHT22;10194;50.824;7.134;2023-05-02T11:57:38;14.00;99.90
20068;DHT22;10194;50.824;7.134;2023-05-02T12:00:05;14.10;99.90
20068;DHT22;10194;50.824;7.134;2023-05-02T12:02:43;14.30;99.90
20068;DHT22;10194;50.824;7.134;2023-05-02T12:05:12;14.50;99.90
20068;DHT22;10194;50.824;7.134;2023-05-02T12:07:42;14.50;99.90
20068;DHT22;10194;50.824;7.134;2023-05-02T12:10:10;14.60;99.90
20068;DHT22;10194;50.824;7.134;2023-05-02T12:12:37;14.50;99.90
20068;DHT22;10194;50.824;7.134;2023-05-02T12:15:05;14.30;99.90
20068;DHT22;10194;50.824;7.134;2023-05-02T12:17:33;14.30;99.90
20068;DHT22;10194;50.824;7.134;2023-05-02T12:20:03;14.50;99.90
20068;DHT22;10194;50.824;7.134;2023-05-02T12:22:31;14.70;99.90
20068;DHT22;10194;50.824;7.134;2023-05-02T12:24:57;14.60;99.90
20068;DHT22;10194;50.824;7.134;2023-05-02T12:27:23;14.40;99.90
20068;DHT22;10194;50.824;7.134;2023-05-02T12:29:50;14.40;99.90
20068;DHT22;10194;50.824;7.134;2023-05-02T12:32:29;14.50;99.90
20068;DHT22;10194;50.824;7.134;2023-05-02T12:34:57;14.60;99.90
20068;DHT22;10194;50.824;7.134;2023-05-02T12:37:24;14.70;99.90
20068;DHT22;10194;50.824;7.134;2023-05-02T12:39:52;14.80;99.90
20068;DHT22;10194;50.824;7.134;2023-05-02T12:42:20;14.70;99.90
20068;DHT22;10194;50.824;7.134;2023-05-02T12:44:48;14.40;99.90
20068;DHT22;10194;50.824;7.134;2023-05-02T12:47:17;14.60;99.90
20068;DHT22;10194;50.824;7.134;2023-05-02T12:52:49;14.50;99.90
20068;DHT22;10194;50.824;7.134;2023-05-02T12:55:23;14.60;99.90
20068;DHT22;10194;50.824;7.134;2023-05-02T12:57:50;14.70;99.90
20068;DHT22;10194;50.824;7.134;2023-05-02T13:00:20;14.90;99.90
20068;DHT22;10194;50.824;7.134;2023-05-02T13:02:46;15.00;99.90
20068;DHT22;10194;50.824;7.134;2023-05-02T13:05:16;15.10;99.90
20068;DHT22;10194;50.824;7.134;2023-05-02T13:07:42;15.20;99.90
20068;DHT22;10194;50.824;7.134;2023-05-02T13:10:08;15.20;99.90
20068;DHT22;10194;50.824;7.134;2023-05-02T13:12:35;14.90;99.90
20068;DHT22;10194;50.824;7.134;2023-05-02T13:15:06;14.60;99.90
20068;DHT22;10194;50.824;7.134;2023-05-02T13:17:33;14.50;99.90
20068;DHT22;10194;50.824;7.134;2023-05-02T13:19:59;14.50;99.90
20068;DHT22;10194;50.824;7.134;2023-05-02T13:22:26;14.20;99.90
20068;DHT22;10194;50.824;7.134;2023-05-02T13:24:53;13.90;99.90
20068;DHT22;10194;50.824;7.134;2023-05-02T13:27:20;14.00;99.90
20068;DHT22;10194;50.824;7.134;2023-05-02T13:29:51;13.70;99.90
20068;DHT22;10194;50.824;7.134;2023-05-02T13:32:17;13.80;99.90
20068;DHT22;10194;50.824;7.134;2023-05-02T13:34:43;14.00;99.90
20068;DHT22;10194;50.824;7.134;2023-05-02T13:37:09;14.00;99.90
20068;DHT22;10194;50.824;7.134;2023-05-02T13:39:35;13.90;99.90
20068;DHT22;10194;50.824;7.134;2023-05-02T13:42:01;13.80;99.90
20068;DHT22;10194;50.824;7.134;2023-05-02T13:44:28;14.00;99.90
20068;DHT22;10194;50.824;7.134;2023-05-02T13:46:54;14.00;99.90
20068;DHT22;10194;50.824;7.134;2023-05-02T13:49:20;14.40;99.90
20068;DHT22;10194;50.824;7.134;2023-05-02T13:51:47;14.60;99.90
20068;DHT22;10194;50.824;7.134;2023-05-02T13:54:12;14.30;99.90
20068;DHT22;10194;50.824;7.134;2023-05-02T13:56:39;14.20;99.90
20068;DHT22;10194;50.824;7.134;2023-05-02T13:59:06;13.80;99.90
20068;DHT22;10194;50.824;7.134;2023-05-02T14:01:32;14.00;99.90
20068;DHT22;10194;50.824;7.134;2023-05-02T14:03:58;14.20;99.90
20068;DHT22;10194;50.824;7.134;2023-05-02T14:06:24;14.40;99.90
20068;DHT22;10194;50.824;7.134;2023-05-02T14:08:49;14.50;99.90
20068;DHT22;10194;50.824;7.134;2023-05-02T14:11:16;14.10;99.90
20068;DHT22;10194;50.824;7.134;2023-05-02T14:13:42;14.00;99.90
20068;DHT22;10194;50.824;7.134;2023-05-02T14:16:08;13.80;99.90
20068;DHT22;10194;50.824;7.134;2023-05-02T14:18:34;14.00;99.90
20068;DHT22;10194;50.824;7.134;2023-05-02T14:21:00;14.00;99.90
20068;DHT22;10194;50.824;7.134;2023-05-02T14:23:26;14.10;99.90
20068;DHT22;10194;50.824;7.134;2023-05-02T14:25:55;13.70;99.90
20068;DHT22;10194;50.824;7.134;2023-05-02T14:28:21;13.70;99.90
20068;DHT22;10194;50.824;7.134;2023-05-02T14:30:50;13.70;99.90
20068;DHT22;10194;50.824;7.134;2023-05-02T14:33:16;13.80;99.90
20068;DHT22;10194;50.824;7.134;2023-05-02T14:35:42;14.00;99.90
20068;DHT22;10194;50.824;7.134;2023-05-02T14:38:08;14.10;99.90
20068;DHT22;10194;50.824;7.134;2023-05-02T14:40:33;14.10;99.90
20068;DHT22;10194;50.824;7.134;2023-05-02T14:42:59;14.00;99.90
20068;DHT22;10194;50.824;7.134;2023-05-02T14:45:26;14.00;99.90
20068;DHT22;10194;50.824;7.134;2023-05-02T14:47:51;14.00;99.90
20068;DHT22;10194;50.824;7.134;2023-05-02T14:50:17;13.90;99.90
20068;DHT22;10194;50.824;7.134;2023-05-02T14:52:43;14.00;99.90
20068;DHT22;10194;50.824;7.134;2023-05-02T14:55:11;13.70;99.90
20068;DHT22;10194;50.824;7.134;2023-05-02T14:57:37;13.80;99.90
20068;DHT22;10194;50.824;7.134;2023-05-02T15:00:04;14.00;99.90
20068;DHT22;10194;50.824;7.134;2023-05-02T15:02:32;13.80;99.90
20068;DHT22;10194;50.824;7.134;2023-05-02T15:04:58;13.90;99.90
20068;DHT22;10194;50.824;7.134;2023-05-02T15:07:24;13.90;99.90
20068;DHT22;10194;50.824;7.134;2023-05-02T15:09:51;13.90;99.90
20068;DHT22;10194;50.824;7.134;2023-05-02T15:12:16;13.80;99.90
20068;DHT22;10194;50.824;7.134;2023-05-02T15:14:42;14.00;99.90
20068;DHT22;10194;50.824;7.134;2023-05-02T15:17:08;14.10;99.90
20068;DHT22;10194;50.824;7.134;2023-05-02T15:19:34;14.30;99.90
20068;DHT22;10194;50.824;7.134;2023-05-02T15:22:00;14.50;99.90
20068;DHT22;10194;50.824;7.134;2023-05-02T15:24:26;14.40;99.90
20068;DHT22;10194;50.824;7.134;2023-05-02T15:26:52;14.30;99.90
20068;DHT22;10194;50.824;7.134;2023-05-02T15:29:18;14.20;99.90
20068;DHT22;10194;50.824;7.134;2023-05-02T15:31:43;14.10;99.90
20068;DHT22;10194;50.824;7.134;2023-05-02T15:34:09;14.10;99.90
20068;DHT22;10194;50.824;7.134;2023-05-02T15:36:35;14.10;99.90
20068;DHT22;10194;50.824;7.134;2023-05-02T15:39:02;14.00;99.90
20068;DHT22;10194;50.824;7.134;2023-05-02T15:41:29;13.90;99.30
20068;DHT22;10194;50.824;7.134;2023-05-02T15:43:56;13.80;99.90
20068;DHT22;10194;50.824;7.134;2023-05-02T15:46:22;13.80;99.90
20068;DHT22;10194;50.824;7.134;2023-05-02T15:48:48;13.60;99.70
20068;DHT22;10194;50.824;7.134;2023-05-02T15:51:14;13.60;99.30
20068;DHT22;10194;50.824;7.134;2023-05-02T15:53:40;13.40;99.40
20068;DHT22;10194;50.824;7.134;2023-05-02T15:56:09;13.40;99.90
20068;DHT22;10194;50.824;7.134;2023-05-02T15:58:35;13.40;99.10
20068;DHT22;10194;50.824;7.134;2023-05-02T16:01:01;13.40;99.90
20068;DHT22;10194;50.824;7.134;2023-05-02T16:03:27;13.50;99.90
20068;DHT22;10194;50.824;7.134;2023-05-02T16:05:53;13.60;99.90
20068;DHT22;10194;50.824;7.134;2023-05-02T16:08:19;13.50;99.90
20068;DHT22;10194;50.824;7.134;2023-05-02T16:10:45;13.60;99.60
20068;DHT22;10194;50.824;7.134;2023-05-02T16:13:11;13.60;99.90
20068;DHT22;10194;50.824;7.134;2023-05-02T16:15:37;13.70;99.90
20068;DHT22;10194;50.824;7.134;2023-05-02T16:18:03;13.60;99.90
20068;DHT22;10194;50.824;7.134;2023-05-02T16:20:29;13.60;98.10
20068;DHT22;10194;50.824;7.134;2023-05-02T16:22:58;13.60;98.70
20068;DHT22;10194;50.824;7.134;2023-05-02T16:25:24;13.50;98.50
20068;DHT22;10194;50.824;7.134;2023-05-02T16:27:51;13.50;98.70
20068;DHT22;10194;50.824;7.134;2023-05-02T16:30:17;13.50;99.00